sensor_id;sensor_type;location;lat;lon;timestamp;temperature;humidity
39815;DHT22;25495;45.948;4.568;2023-02-03T00:01:57;5.30;99.90
39815;DHT22;25495;45.948;4.568;2023-02-03T00:04:23;5.30;99.90
39815;DHT22;25495;45.948;4.568;2023-02-03T00:06:48;5.30;99.90
39815;DHT22;25495;45.948;4.568;2023-02-03T00:09:15;5.30;99.90
39815;DHT22;25495;45.948;4.568;2023-02-03T00:11:40;5.30;99.90
39815;DHT22;25495;45.948;4.568;2023-02-03T00:14:06;5.40;99.90
39815;DHT22;25495;45.948;4.568;2023-02-03T00:16:32;5.40;99.90
39815;DHT22;25495;45.948;4.568;2023-02-03T00:18:58;5.30;99.90
39815;DHT22;25495;45.948;4.568;2023-02-03T00:21:23;5.30;99.90
39815;DHT22;25495;45.948;4.568;2023-02-03T00:23:49;5.30;99.90
39815;DHT22;25495;45.948;4.568;2023-02-03T00:26:15;5.40;99.90
39815;DHT22;25495;45.948;4.568;2023-02-03T00:28:41;5.40;99.90
39815;DHT22;25495;45.948;4.568;2023-02-03T00:31:40;5.30;99.90
39815;DHT22;25495;45.948;4.568;2023-02-03T00:33:58;5.30;99.90
39815;DHT22;25495;45.948;4.568;2023-02-03T00:36:24;5.30;99.90
39815;DHT22;25495;45.948;4.568;2023-02-03T00:38:50;5.30;99.90
39815;DHT22;25495;45.948;4.568;2023-02-03T00:41:16;5.30;99.90
39815;DHT22;25495;45.948;4.568;2023-02-03T00:43:42;5.30;99.90
39815;DHT22;25495;45.948;4.568;2023-02-03T00:46:07;5.20;99.90
39815;DHT22;25495;45.948;4.568;2023-02-03T00:48:33;5.20;99.90
39815;DHT22;25495;45.948;4.568;2023-02-03T00:50:58;5.30;99.90
39815;DHT22;25495;45.948;4.568;2023-02-03T00:53:24;5.30;99.90
39815;DHT22;25495;45.948;4.568;2023-02-03T00:55:49;5.30;99.90
39815;DHT22;25495;45.948;4.568;2023-02-03T00:58:16;5.20;99.90
39815;DHT22;25495;45.948;4.568;2023-02-03T01:00:41;5.30;99.90
39815;DHT22;25495;45.948;4.568;2023-02-03T01:03:07;5.30;99.90
39815;DHT22;25495;45.948;4.568;2023-02-03T01:05:33;5.30;99.90
39815;DHT22;25495;45.948;4.568;2023-02-03T01:07:59;5.30;99.90
39815;DHT22;25495;45.948;4.568;2023-02-03T01:10:24;5.30;99.90
39815;DHT22;25495;45.948;4.568;2023-02-03T01:12:50;5.30;99.90
39815;DHT22;25495;45.948;4.568;2023-02-03T01:15:16;5.30;99.90
39815;DHT22;25495;45.948;4.568;2023-02-03T01:17:41;5.30;99.90
39815;DHT22;25495;45.948;4.568;2023-02-03T01:20:07;5.20;99.90
39815;DHT22;25495;45.948;4.568;2023-02-03T01:22:33;5.20;99.90
39815;DHT22;25495;45.948;4.568;2023-02-03T01:24:59;5.20;99.90
39815;DHT22;25495;45.948;4.568;2023-02-03T01:27:24;5.20;99.90
39815;DHT22;25495;45.948;4.568;2023-02-03T01:29:50;5.20;99.90
39815;DHT22;25495;45.948;4.568;2023-02-03T01:32:15;5.20;99.90
39815;DHT22;25495;45.948;4.568;2023-02-03T01:34:41;5.20;99.90
39815;DHT22;25495;45.948;4.568;2023-02-03T01:37:07;5.10;99.90
39815;DHT22;25495;45.948;4.568;2023-02-03T01:39:32;5.10;99.90
39815;DHT22;25495;45.948;4.568;2023-02-03T01:41:58;5.20;99.90
39815;DHT22;25495;45.948;4.568;2023-02-03T01:47:15;5.20;99.90
39815;DHT22;25495;45.948;4.568;2023-02-03T01:49:44;5.20;99.90
39815;DHT22;25495;45.948;4.568;2023-02-03T01:52:10;5.10;99.90
39815;DHT22;25495;45.948;4.568;2023-02-03T01:54:38;5.10;99.90
39815;DHT22;25495;45.948;4.568;2023-02-03T01:57:15;5.10;99.90
39815;DHT22;25495;45.948;4.568;2023-02-03T01:59:41;5.10;99.90
39815;DHT22;25495;45.948;4.568;2023-02-03T02:02:07;5.10;99.90
39815;DHT22;25495;45.948;4.568;2023-02-03T02:04:35;5.10;99.90
39815;DHT22;25495;45.948;4.568;2023-02-03T02:07:04;5.10;99.90
39815;DHT22;25495;45.948;4.568;2023-02-03T02:09:30;5.20;99.90
39815;DHT22;25495;45.948;4.568;2023-02-03T02:11:56;5.10;99.90
39815;DHT22;25495;45.948;4.568;2023-02-03T02:14:21;5.10;99.90
39815;DHT22;25495;45.948;4.568;2023-02-03T02:21:53;5.00;99.90
39815;DHT22;25495;45.948;4.568;2023-02-03T02:39:48;5.10;99.90
39815;DHT22;25495;45.948;4.568;2023-02-03T02:42:20;5.00;99.90
39815;DHT22;25495;45.948;4.568;2023-02-03T02:44:48;5.00;99.90
39815;DHT22;25495;45.948;4.568;2023-02-03T02:47:16;5.00;99.90
39815;DHT22;25495;45.948;4.568;2023-02-03T02:49:53;5.00;99.90
39815;DHT22;25495;45.948;4.568;2023-02-03T02:52:19;5.00;99.90
39815;DHT22;25495;45.948;4.568;2023-02-03T02:54:47;5.10;99.90
39815;DHT22;25495;45.948;4.568;2023-02-03T02:57:13;5.10;99.90
39815;DHT22;25495;45.948;4.568;2023-02-03T02:59:40;5.10;99.90
39815;DHT22;25495;45.948;4.568;2023-02-03T03:02:06;5.10;99.90
39815;DHT22;25495;45.948;4.568;2023-02-03T03:04:33;5.10;99.90
39815;DHT22;25495;45.948;4.568;2023-02-03T03:07:00;5.10;99.90
39815;DHT22;25495;45.948;4.568;2023-02-03T03:09:32;5.10;99.90
39815;DHT22;25495;45.948;4.568;2023-02-03T03:14:31;5.00;99.90
39815;DHT22;25495;45.948;4.568;2023-02-03T03:17:01;5.10;99.90
39815;DHT22;25495;45.948;4.568;2023-02-03T03:19:31;5.10;99.90
39815;DHT22;25495;45.948;4.568;2023-02-03T03:21:59;5.10;99.90
39815;DHT22;25495;45.948;4.568;2023-02-03T03:24:27;5.00;99.90
39815;DHT22;25495;45.948;4.568;2023-02-03T03:29:27;5.10;99.90
39815;DHT22;25495;45.948;4.568;2023-02-03T03:31:54;5.00;99.90
39815;DHT22;25495;45.948;4.568;2023-02-03T03:34:20;5.00;99.90
39815;DHT22;25495;45.948;4.568;2023-02-03T03:36:47;5.00;99.90
39815;DHT22;25495;45.948;4.568;2023-02-03T03:41:41;5.00;99.90
39815;DHT22;25495;45.948;4.568;2023-02-03T03:44:09;5.10;99.90
39815;DHT22;25495;45.948;4.568;2023-02-03T03:46:39;5.10;99.90
39815;DHT22;25495;45.948;4.568;2023-02-03T03:49:06;5.10;99.90
39815;DHT22;25495;45.948;4.568;2023-02-03T03:51:36;5.10;99.90
39815;DHT22;25495;45.948;4.568;2023-02-03T03:54:04;5.10;99.90
39815;DHT22;25495;45.948;4.568;2023-02-03T03:56:35;5.10;99.90
39815;DHT22;25495;45.948;4.568;2023-02-03T03:59:03;5.10;99.90
39815;DHT22;25495;45.948;4.568;2023-02-03T04:01:30;5.10;99.90
39815;DHT22;25495;45.948;4.568;2023-02-03T04:03:57;5.10;99.90
39815;DHT22;25495;45.948;4.568;2023-02-03T04:06:23;5.00;99.90
39815;DHT22;25495;45.948;4.568;2023-02-03T04:08:49;5.00;99.90
39815;DHT22;25495;45.948;4.568;2023-02-03T04:11:15;5.00;99.90
39815;DHT22;25495;45.948;4.568;2023-02-03T04:14:00;5.00;99.90
39815;DHT22;25495;45.948;4.568;2023-02-03T04:16:26;5.00;99.90
39815;DHT22;25495;45.948;4.568;2023-02-03T04:18:52;5.00;99.90
39815;DHT22;25495;45.948;4.568;2023-02-03T04:21:17;5.00;99.90
39815;DHT22;25495;45.948;4.568;2023-02-03T04:23:43;5.00;99.90
39815;DHT22;25495;45.948;4.568;2023-02-03T04:26:08;5.00;99.90
39815;DHT22;25495;45.948;4.568;2023-02-03T04:28:34;5.00;99.90
39815;DHT22;25495;45.948;4.568;2023-02-03T04:31:00;5.10;99.90
39815;DHT22;25495;45.948;4.568;2023-02-03T04:33:25;5.10;99.90
39815;DHT22;25495;45.948;4.568;2023-02-03T04:35:51;5.10;99.90
39815;DHT22;25495;45.948;4.568;2023-02-03T04:38:17;5.20;99.90
39815;DHT22;25495;45.948;4.568;2023-02-03T04:40:42;5.20;99.90
39815;DHT22;25495;45.948;4.568;2023-02-03T04:43:09;5.20;99.90
39815;DHT22;25495;45.948;4.568;2023-02-03T04:45:35;5.20;99.90
39815;DHT22;25495;45.948;4.568;2023-02-03T04:48:01;5.30;99.90
39815;DHT22;25495;45.948;4.568;2023-02-03T04:50:29;5.20;99.90
39815;DHT22;25495;45.948;4.568;2023-02-03T04:52:54;5.30;99.90
39815;DHT22;25495;45.948;4.568;2023-02-03T04:55:23;5.30;99.90
39815;DHT22;25495;45.948;4.568;2023-02-03T04:57:48;5.20;99.90
39815;DHT22;25495;45.948;4.568;2023-02-03T05:00:19;5.10;99.90
39815;DHT22;25495;45.948;4.568;2023-02-03T05:02:44;5.10;99.90
39815;DHT22;25495;45.948;4.568;2023-02-03T05:05:10;5.10;99.90
39815;DHT22;25495;45.948;4.568;2023-02-03T05:07:35;5.10;99.90
39815;DHT22;25495;45.948;4.568;2023-02-03T05:10:01;5.00;99.90
39815;DHT22;25495;45.948;4.568;2023-02-03T05:12:26;5.00;99.90
39815;DHT22;25495;45.948;4.568;2023-02-03T05:14:52;5.10;99.90
39815;DHT22;25495;45.948;4.568;2023-02-03T05:17:18;5.00;99.90
39815;DHT22;25495;45.948;4.568;2023-02-03T05:19:43;5.00;99.90
39815;DHT22;25495;45.948;4.568;2023-02-03T05:22:09;5.10;99.90
39815;DHT22;25495;45.948;4.568;2023-02-03T05:24:34;5.00;99.90
39815;DHT22;25495;45.948;4.568;2023-02-03T05:27:00;5.00;99.90
39815;DHT22;25495;45.948;4.568;2023-02-03T05:29:25;5.00;99.90
39815;DHT22;25495;45.948;4.568;2023-02-03T05:31:51;4.90;99.90
39815;DHT22;25495;45.948;4.568;2023-02-03T05:34:17;4.90;99.90
39815;DHT22;25495;45.948;4.568;2023-02-03T05:36:42;5.00;99.90
39815;DHT22;25495;45.948;4.568;2023-02-03T05:39:08;4.90;99.90
39815;DHT22;25495;45.948;4.568;2023-02-03T05:41:33;4.90;99.90
39815;DHT22;25495;45.948;4.568;2023-02-03T05:44:21;4.90;99.90
39815;DHT22;25495;45.948;4.568;2023-02-03T05:46:47;4.90;99.90
39815;DHT22;25495;45.948;4.568;2023-02-03T05:49:13;4.90;99.90
39815;DHT22;25495;45.948;4.568;2023-02-03T05:51:39;4.90;99.90
39815;DHT22;25495;45.948;4.568;2023-02-03T05:54:05;4.90;99.90
39815;DHT22;25495;45.948;4.568;2023-02-03T05:56:31;4.90;99.90
39815;DHT22;25495;45.948;4.568;2023-02-03T05:58:56;4.90;99.90
39815;DHT22;25495;45.948;4.568;2023-02-03T06:01:22;4.90;99.90
39815;DHT22;25495;45.948;4.568;2023-02-03T06:03:47;4.90;99.90
39815;DHT22;25495;45.948;4.568;2023-02-03T06:06:13;4.90;99.90
39815;DHT22;25495;45.948;4.568;2023-02-03T06:08:39;4.90;99.90
39815;DHT22;25495;45.948;4.568;2023-02-03T06:11:05;4.90;99.90
39815;DHT22;25495;45.948;4.568;2023-02-03T06:13:30;4.90;99.90
39815;DHT22;25495;45.948;4.568;2023-02-03T06:15:56;4.90;99.90
39815;DHT22;25495;45.948;4.568;2023-02-03T06:18:22;4.90;99.90
39815;DHT22;25495;45.948;4.568;2023-02-03T06:20:48;4.80;99.90
39815;DHT22;25495;45.948;4.568;2023-02-03T06:23:14;4.90;99.90
39815;DHT22;25495;45.948;4.568;2023-02-03T06:25:44;4.90;99.90
39815;DHT22;25495;45.948;4.568;2023-02-03T06:28:10;4.90;99.90
39815;DHT22;25495;45.948;4.568;2023-02-03T06:30:35;4.90;99.90
39815;DHT22;25495;45.948;4.568;2023-02-03T06:33:01;4.90;99.90
39815;DHT22;25495;45.948;4.568;2023-02-03T06:35:27;4.90;99.90
39815;DHT22;25495;45.948;4.568;2023-02-03T06:37:53;4.90;99.90
39815;DHT22;25495;45.948;4.568;2023-02-03T06:40:18;4.90;99.90
39815;DHT22;25495;45.948;4.568;2023-02-03T06:42:44;4.90;99.90
39815;DHT22;25495;45.948;4.568;2023-02-03T06:45:11;4.90;99.90
39815;DHT22;25495;45.948;4.568;2023-02-03T06:47:43;4.90;99.90
39815;DHT22;25495;45.948;4.568;2023-02-03T06:50:09;4.80;99.90
39815;DHT22;25495;45.948;4.568;2023-02-03T06:52:35;4.80;99.90
39815;DHT22;25495;45.948;4.568;2023-02-03T06:55:01;4.80;99.90
39815;DHT22;25495;45.948;4.568;2023-02-03T06:57:26;4.80;99.90
39815;DHT22;25495;45.948;4.568;2023-02-03T06:59:52;4.80;99.90
39815;DHT22;25495;45.948;4.568;2023-02-03T07:02:18;4.80;99.90
39815;DHT22;25495;45.948;4.568;2023-02-03T07:04:43;4.80;99.90
39815;DHT22;25495;45.948;4.568;2023-02-03T07:07:12;4.80;99.90
39815;DHT22;25495;45.948;4.568;2023-02-03T07:09:38;4.80;99.90
39815;DHT22;25495;45.948;4.568;2023-02-03T07:12:04;4.80;99.90
39815;DHT22;25495;45.948;4.568;2023-02-03T07:14:29;4.80;99.90
39815;DHT22;25495;45.948;4.568;2023-02-03T07:16:55;4.90;99.90
39815;DHT22;25495;45.948;4.568;2023-02-03T07:19:21;4.90;99.90
39815;DHT22;25495;45.948;4.568;2023-02-03T07:21:47;4.90;99.90
39815;DHT22;25495;45.948;4.568;2023-02-03T07:24:12;4.80;99.90
39815;DHT22;25495;45.948;4.568;2023-02-03T07:26:38;4.80;99.90
39815;DHT22;25495;45.948;4.568;2023-02-03T07:29:04;4.90;99.90
39815;DHT22;25495;45.948;4.568;2023-02-03T07:31:29;4.90;99.90
39815;DHT22;25495;45.948;4.568;2023-02-03T07:33:55;4.90;99.90
39815;DHT22;25495;45.948;4.568;2023-02-03T07:36:21;4.90;99.90
39815;DHT22;25495;45.948;4.568;2023-02-03T07:38:46;5.00;99.90
39815;DHT22;25495;45.948;4.568;2023-02-03T07:41:12;5.10;99.90
39815;DHT22;25495;45.948;4.568;2023-02-03T07:43:37;5.10;99.90
39815;DHT22;25495;45.948;4.568;2023-02-03T07:46:03;5.20;99.90
39815;DHT22;25495;45.948;4.568;2023-02-03T07:48:29;5.40;99.90
39815;DHT22;25495;45.948;4.568;2023-02-03T07:50:54;5.70;99.90
39815;DHT22;25495;45.948;4.568;2023-02-03T07:53:20;5.80;99.90
39815;DHT22;25495;45.948;4.568;2023-02-03T07:55:46;6.00;99.90
39815;DHT22;25495;45.948;4.568;2023-02-03T07:58:13;6.40;99.90
39815;DHT22;25495;45.948;4.568;2023-02-03T08:00:41;6.30;99.90
39815;DHT22;25495;45.948;4.568;2023-02-03T08:03:07;6.20;99.90
39815;DHT22;25495;45.948;4.568;2023-02-03T08:05:32;6.20;99.90
39815;DHT22;25495;45.948;4.568;2023-02-03T08:07:58;6.30;99.90
39815;DHT22;25495;45.948;4.568;2023-02-03T08:10:26;6.10;99.90
39815;DHT22;25495;45.948;4.568;2023-02-03T08:12:52;6.20;99.90
39815;DHT22;25495;45.948;4.568;2023-02-03T08:15:19;6.30;99.90
39815;DHT22;25495;45.948;4.568;2023-02-03T08:17:45;6.30;99.90
39815;DHT22;25495;45.948;4.568;2023-02-03T08:22:37;6.80;99.90
39815;DHT22;25495;45.948;4.568;2023-02-03T08:25:02;6.60;99.90
39815;DHT22;25495;45.948;4.568;2023-02-03T08:27:29;6.70;99.90
39815;DHT22;25495;45.948;4.568;2023-02-03T08:29:55;6.80;99.90
39815;DHT22;25495;45.948;4.568;2023-02-03T08:32:21;6.80;99.90
39815;DHT22;25495;45.948;4.568;2023-02-03T08:34:47;6.90;99.90
39815;DHT22;25495;45.948;4.568;2023-02-03T08:37:13;6.70;99.90
39815;DHT22;25495;45.948;4.568;2023-02-03T08:39:39;6.70;99.90
39815;DHT22;25495;45.948;4.568;2023-02-03T08:42:05;6.70;99.90
39815;DHT22;25495;45.948;4.568;2023-02-03T08:44:30;6.60;99.90
39815;DHT22;25495;45.948;4.568;2023-02-03T08:46:56;6.70;99.90
39815;DHT22;25495;45.948;4.568;2023-02-03T08:49:22;6.60;99.90
39815;DHT22;25495;45.948;4.568;2023-02-03T08:51:49;6.70;99.90
39815;DHT22;25495;45.948;4.568;2023-02-03T08:54:16;7.00;99.90
39815;DHT22;25495;45.948;4.568;2023-02-03T08:56:42;7.30;99.90
39815;DHT22;25495;45.948;4.568;2023-02-03T08:59:08;7.50;99.90
39815;DHT22;25495;45.948;4.568;2023-02-03T09:01:33;7.40;99.90
39815;DHT22;25495;45.948;4.568;2023-02-03T09:03:59;7.80;99.90
39815;DHT22;25495;45.948;4.568;2023-02-03T09:06:26;7.50;99.90
39815;DHT22;25495;45.948;4.568;2023-02-03T09:08:52;7.00;99.90
39815;DHT22;25495;45.948;4.568;2023-02-03T09:11:17;6.70;99.90
39815;DHT22;25495;45.948;4.568;2023-02-03T09:13:43;6.60;99.90
39815;DHT22;25495;45.948;4.568;2023-02-03T09:16:10;6.50;99.90
39815;DHT22;25495;45.948;4.568;2023-02-03T09:18:36;6.70;99.90
39815;DHT22;25495;45.948;4.568;2023-02-03T09:21:05;6.60;99.90
39815;DHT22;25495;45.948;4.568;2023-02-03T09:23:31;6.70;99.90
39815;DHT22;25495;45.948;4.568;2023-02-03T09:26:00;6.60;99.90
39815;DHT22;25495;45.948;4.568;2023-02-03T09:28:26;6.60;99.90
39815;DHT22;25495;45.948;4.568;2023-02-03T09:30:52;6.70;99.90
39815;DHT22;25495;45.948;4.568;2023-02-03T09:33:17;6.80;99.90
39815;DHT22;25495;45.948;4.568;2023-02-03T09:35:50;7.10;99.90
39815;DHT22;25495;45.948;4.568;2023-02-03T09:38:16;6.90;99.90
39815;DHT22;25495;45.948;4.568;2023-02-03T09:40:41;6.90;99.90
39815;DHT22;25495;45.948;4.568;2023-02-03T09:45:47;6.90;99.90
39815;DHT22;25495;45.948;4.568;2023-02-03T09:48:19;7.10;99.90
39815;DHT22;25495;45.948;4.568;2023-02-03T09:50:45;7.20;99.90
39815;DHT22;25495;45.948;4.568;2023-02-03T09:53:19;7.10;99.90
39815;DHT22;25495;45.948;4.568;2023-02-03T09:55:47;7.10;99.90
39815;DHT22;25495;45.948;4.568;2023-02-03T09:58:14;7.20;99.90
39815;DHT22;25495;45.948;4.568;2023-02-03T10:00:41;7.10;99.90
39815;DHT22;25495;45.948;4.568;2023-02-03T10:03:18;7.20;99.90
39815;DHT22;25495;45.948;4.568;2023-02-03T10:05:56;7.70;99.90
39815;DHT22;25495;45.948;4.568;2023-02-03T10:08:27;7.60;99.90
39815;DHT22;25495;45.948;4.568;2023-02-03T10:19:02;7.00;99.90
39815;DHT22;25495;45.948;4.568;2023-02-03T10:21:42;6.90;99.90
39815;DHT22;25495;45.948;4.568;2023-02-03T10:24:10;6.80;99.90
39815;DHT22;25495;45.948;4.568;2023-02-03T10:26:37;6.80;99.90
39815;DHT22;25495;45.948;4.568;2023-02-03T10:31:45;7.20;99.90
39815;DHT22;25495;45.948;4.568;2023-02-03T10:34:12;7.90;99.90
39815;DHT22;25495;45.948;4.568;2023-02-03T10:36:57;8.00;99.90
39815;DHT22;25495;45.948;4.568;2023-02-03T10:41:49;8.00;99.90
39815;DHT22;25495;45.948;4.568;2023-02-03T10:44:14;8.20;99.90
39815;DHT22;25495;45.948;4.568;2023-02-03T10:46:40;8.60;99.90
39815;DHT22;25495;45.948;4.568;2023-02-03T10:49:08;8.10;99.90
39815;DHT22;25495;45.948;4.568;2023-02-03T10:54:00;7.80;99.90
39815;DHT22;25495;45.948;4.568;2023-02-03T10:56:26;7.70;99.90
39815;DHT22;25495;45.948;4.568;2023-02-03T10:58:55;7.50;99.90
39815;DHT22;25495;45.948;4.568;2023-02-03T11:01:43;7.40;99.90
39815;DHT22;25495;45.948;4.568;2023-02-03T11:04:21;7.40;99.90
39815;DHT22;25495;45.948;4.568;2023-02-03T11:06:52;8.60;99.90
39815;DHT22;25495;45.948;4.568;2023-02-03T11:11:44;9.20;99.90
39815;DHT22;25495;45.948;4.568;2023-02-03T11:14:10;9.30;99.90
39815;DHT22;25495;45.948;4.568;2023-02-03T11:16:37;9.30;99.90
39815;DHT22;25495;45.948;4.568;2023-02-03T11:19:21;9.40;99.90
39815;DHT22;25495;45.948;4.568;2023-02-03T11:21:50;9.30;99.90
39815;DHT22;25495;45.948;4.568;2023-02-03T11:24:17;9.40;99.90
39815;DHT22;25495;45.948;4.568;2023-02-03T11:26:45;9.00;99.90
39815;DHT22;25495;45.948;4.568;2023-02-03T11:29:17;8.60;99.90
39815;DHT22;25495;45.948;4.568;2023-02-03T11:31:45;8.80;99.90
39815;DHT22;25495;45.948;4.568;2023-02-03T11:34:16;9.10;99.90
39815;DHT22;25495;45.948;4.568;2023-02-03T11:36:42;8.80;99.90
39815;DHT22;25495;45.948;4.568;2023-02-03T11:39:15;8.50;99.90
39815;DHT22;25495;45.948;4.568;2023-02-03T11:41:41;9.00;99.90
39815;DHT22;25495;45.948;4.568;2023-02-03T11:44:11;8.90;99.90
39815;DHT22;25495;45.948;4.568;2023-02-03T11:46:37;9.00;99.90
39815;DHT22;25495;45.948;4.568;2023-02-03T11:49:09;8.50;99.90
39815;DHT22;25495;45.948;4.568;2023-02-03T11:51:44;8.30;99.90
39815;DHT22;25495;45.948;4.568;2023-02-03T11:54:24;8.10;99.90
39815;DHT22;25495;45.948;4.568;2023-02-03T11:56:57;8.10;99.90
39815;DHT22;25495;45.948;4.568;2023-02-03T12:07:09;8.20;99.90
39815;DHT22;25495;45.948;4.568;2023-02-03T12:12:35;8.10;99.90
39815;DHT22;25495;45.948;4.568;2023-02-03T12:17:50;8.00;99.90
39815;DHT22;25495;45.948;4.568;2023-02-03T12:20:24;7.80;99.90
39815;DHT22;25495;45.948;4.568;2023-02-03T12:30:38;7.70;99.90
39815;DHT22;25495;45.948;4.568;2023-02-03T12:33:10;7.90;99.90
39815;DHT22;25495;45.948;4.568;2023-02-03T12:35:44;7.80;99.90
39815;DHT22;25495;45.948;4.568;2023-02-03T12:38:14;7.90;99.90
39815;DHT22;25495;45.948;4.568;2023-02-03T12:43:18;7.80;99.90
39815;DHT22;25495;45.948;4.568;2023-02-03T12:45:57;8.00;99.90
39815;DHT22;25495;45.948;4.568;2023-02-03T12:48:27;7.90;99.90
39815;DHT22;25495;45.948;4.568;2023-02-03T12:51:01;7.70;99.90
39815;DHT22;25495;45.948;4.568;2023-02-03T12:53:31;7.70;99.90
39815;DHT22;25495;45.948;4.568;2023-02-03T12:58:34;7.70;99.90
39815;DHT22;25495;45.948;4.568;2023-02-03T13:08:36;7.80;99.90
39815;DHT22;25495;45.948;4.568;2023-02-03T13:13:39;7.90;99.90
39815;DHT22;25495;45.948;4.568;2023-02-03T13:16:06;8.00;99.90
39815;DHT22;25495;45.948;4.568;2023-02-03T13:18:34;8.00;99.90
39815;DHT22;25495;45.948;4.568;2023-02-03T13:21:01;8.30;99.90
39815;DHT22;25495;45.948;4.568;2023-02-03T13:23:26;8.00;99.90
39815;DHT22;25495;45.948;4.568;2023-02-03T13:33:53;8.00;99.90
39815;DHT22;25495;45.948;4.568;2023-02-03T13:36:30;7.90;99.90
39815;DHT22;25495;45.948;4.568;2023-02-03T13:41:41;7.90;99.90
39815;DHT22;25495;45.948;4.568;2023-02-03T13:44:11;7.90;99.90
39815;DHT22;25495;45.948;4.568;2023-02-03T13:46:38;8.00;99.90
39815;DHT22;25495;45.948;4.568;2023-02-03T13:49:04;7.90;99.90
39815;DHT22;25495;45.948;4.568;2023-02-03T13:51:41;8.80;99.90
39815;DHT22;25495;45.948;4.568;2023-02-03T13:54:12;9.20;99.90
39815;DHT22;25495;45.948;4.568;2023-02-03T13:56:39;9.10;99.90
39815;DHT22;25495;45.948;4.568;2023-02-03T14:01:40;8.50;99.90
39815;DHT22;25495;45.948;4.568;2023-02-03T14:04:07;8.60;99.90
39815;DHT22;25495;45.948;4.568;2023-02-03T14:11:48;8.60;99.90
39815;DHT22;25495;45.948;4.568;2023-02-03T14:16:51;8.80;99.90
39815;DHT22;25495;45.948;4.568;2023-02-03T14:22:07;8.20;99.90
39815;DHT22;25495;45.948;4.568;2023-02-03T14:24:38;8.80;99.90
39815;DHT22;25495;45.948;4.568;2023-02-03T14:27:07;8.50;99.90
39815;DHT22;25495;45.948;4.568;2023-02-03T14:29:40;8.80;99.90
39815;DHT22;25495;45.948;4.568;2023-02-03T14:32:10;8.60;99.90
39815;DHT22;25495;45.948;4.568;2023-02-03T14:34:40;8.10;99.90
39815;DHT22;25495;45.948;4.568;2023-02-03T14:39:55;7.90;99.90
39815;DHT22;25495;45.948;4.568;2023-02-03T14:47:58;7.60;99.90
39815;DHT22;25495;45.948;4.568;2023-02-03T14:57:59;7.80;99.90
39815;DHT22;25495;45.948;4.568;2023-02-03T15:00:27;7.60;99.90
39815;DHT22;25495;45.948;4.568;2023-02-03T15:07:56;7.70;99.90
39815;DHT22;25495;45.948;4.568;2023-02-03T15:10:39;7.40;99.90
39815;DHT22;25495;45.948;4.568;2023-02-03T15:13:21;7.50;99.90
39815;DHT22;25495;45.948;4.568;2023-02-03T15:15:47;7.50;99.90
39815;DHT22;25495;45.948;4.568;2023-02-03T15:18:21;7.10;99.90
39815;DHT22;25495;45.948;4.568;2023-02-03T15:20:50;7.10;99.90
39815;DHT22;25495;45.948;4.568;2023-02-03T15:23:24;7.10;99.90
39815;DHT22;25495;45.948;4.568;2023-02-03T15:26:08;7.00;99.90
39815;DHT22;25495;45.948;4.568;2023-02-03T15:28:35;6.90;99.90
39815;DHT22;25495;45.948;4.568;2023-02-03T15:31:05;7.00;99.90
39815;DHT22;25495;45.948;4.568;2023-02-03T15:33:31;7.10;99.90
39815;DHT22;25495;45.948;4.568;2023-02-03T15:36:00;6.90;99.90
39815;DHT22;25495;45.948;4.568;2023-02-03T15:38:28;6.90;99.90
39815;DHT22;25495;45.948;4.568;2023-02-03T15:40:55;6.80;99.90
39815;DHT22;25495;45.948;4.568;2023-02-03T15:43:34;6.80;99.90
39815;DHT22;25495;45.948;4.568;2023-02-03T15:48:28;6.50;99.90
39815;DHT22;25495;45.948;4.568;2023-02-03T15:50:57;6.80;99.90
39815;DHT22;25495;45.948;4.568;2023-02-03T15:53:29;6.60;99.90
39815;DHT22;25495;45.948;4.568;2023-02-03T15:55:55;6.60;99.90
39815;DHT22;25495;45.948;4.568;2023-02-03T15:58:26;6.60;99.90
39815;DHT22;25495;45.948;4.568;2023-02-03T16:00:54;6.60;99.90
39815;DHT22;25495;45.948;4.568;2023-02-03T16:03:31;6.50;99.90
39815;DHT22;25495;45.948;4.568;2023-02-03T16:06:04;6.50;99.90
39815;DHT22;25495;45.948;4.568;2023-02-03T16:08:34;6.50;99.90
39815;DHT22;25495;45.948;4.568;2023-02-03T16:11:01;6.40;99.90
39815;DHT22;25495;45.948;4.568;2023-02-03T16:13:27;6.30;99.90
39815;DHT22;25495;45.948;4.568;2023-02-03T16:16:04;6.30;99.90
39815;DHT22;25495;45.948;4.568;2023-02-03T16:18:32;6.30;99.90
39815;DHT22;25495;45.948;4.568;2023-02-03T16:21:00;6.30;99.90
39815;DHT22;25495;45.948;4.568;2023-02-03T16:23:25;6.40;99.90
39815;DHT22;25495;45.948;4.568;2023-02-03T16:26:27;6.40;99.90
39815;DHT22;25495;45.948;4.568;2023-02-03T16:31:48;6.20;99.90
39815;DHT22;25495;45.948;4.568;2023-02-03T16:34:33;6.20;99.90
39815;DHT22;25495;45.948;4.568;2023-02-03T16:37:27;6.20;99.90
39815;DHT22;25495;45.948;4.568;2023-02-03T16:40:12;6.10;99.90
39815;DHT22;25495;45.948;4.568;2023-02-03T16:42:57;6.10;99.90
39815;DHT22;25495;45.948;4.568;2023-02-03T16:45:41;6.00;99.90
39815;DHT22;25495;45.948;4.568;2023-02-03T16:48:25;5.80;99.90
39815;DHT22;25495;45.948;4.568;2023-02-03T16:51:11;5.70;99.90
39815;DHT22;25495;45.948;4.568;2023-02-03T16:53:37;5.50;99.90
39815;DHT22;25495;45.948;4.568;2023-02-03T16:56:03;5.30;99.90
39815;DHT22;25495;45.948;4.568;2023-02-03T16:58:29;5.40;99.90
39815;DHT22;25495;45.948;4.568;2023-02-03T17:00:56;5.40;99.90
39815;DHT22;25495;45.948;4.568;2023-02-03T17:03:23;5.40;99.90
39815;DHT22;25495;45.948;4.568;2023-02-03T17:05:50;5.20;99.90
39815;DHT22;25495;45.948;4.568;2023-02-03T17:08:16;5.00;99.90
39815;DHT22;25495;45.948;4.568;2023-02-03T17:10:42;4.90;99.90
39815;DHT22;25495;45.948;4.568;2023-02-03T17:13:09;4.80;99.90
39815;DHT22;25495;45.948;4.568;2023-02-03T17:15:38;4.80;99.90
39815;DHT22;25495;45.948;4.568;2023-02-03T17:18:04;4.90;99.90
39815;DHT22;25495;45.948;4.568;2023-02-03T17:20:30;5.00;99.90
39815;DHT22;25495;45.948;4.568;2023-02-03T17:22:55;4.80;99.90
39815;DHT22;25495;45.948;4.568;2023-02-03T17:25:21;4.90;99.90
39815;DHT22;25495;45.948;4.568;2023-02-03T17:27:47;4.90;99.90
39815;DHT22;25495;45.948;4.568;2023-02-03T17:30:14;4.80;99.90
39815;DHT22;25495;45.948;4.568;2023-02-03T17:32:44;4.80;99.90
39815;DHT22;25495;45.948;4.568;2023-02-03T17:35:14;4.80;99.90
39815;DHT22;25495;45.948;4.568;2023-02-03T17:37:40;4.60;99.90
39815;DHT22;25495;45.948;4.568;2023-02-03T17:40:06;4.60;99.90
39815;DHT22;25495;45.948;4.568;2023-02-03T17:42:38;4.70;99.90
39815;DHT22;25495;45.948;4.568;2023-02-03T17:45:06;4.70;99.90
39815;DHT22;25495;45.948;4.568;2023-02-03T17:47:32;4.70;99.90
39815;DHT22;25495;45.948;4.568;2023-02-03T17:49:57;4.70;99.90
39815;DHT22;25495;45.948;4.568;2023-02-03T17:52:24;4.60;99.90
39815;DHT22;25495;45.948;4.568;2023-02-03T17:54:50;4.40;99.90
39815;DHT22;25495;45.948;4.568;2023-02-03T17:57:16;4.40;99.90
39815;DHT22;25495;45.948;4.568;2023-02-03T17:59:44;4.30;99.90
39815;DHT22;25495;45.948;4.568;2023-02-03T18:02:11;4.30;99.90
39815;DHT22;25495;45.948;4.568;2023-02-03T18:04:36;4.20;99.90
39815;DHT22;25495;45.948;4.568;2023-02-03T18:07:03;4.20;99.90
39815;DHT22;25495;45.948;4.568;2023-02-03T18:09:29;4.20;99.90
39815;DHT22;25495;45.948;4.568;2023-02-03T18:11:54;4.10;99.90